Terminal Aerodrome Forecast
Issued by NWS Sterling, VA

Current Version | Previous Version | Text Only | Print | Product List | Glossary Off
Versions: 1 2 3 4 5 6 7 8 9 10 11 12 13 14

000
FTUS41 KLWX 011120
TAFMRB
TAF
KMRB 011120Z 0112/0212 29015G24KT P6SM SKC
     FM012300 27010KT P6SM SCT100
     FM020400 27006KT P6SM SCT040
     FM020900 28006KT P6SM SCT250=

USA.gov is the U.S. government's official web portal to all federal, state and local government web resources and services.